• Join FlightAware (Why Join?)
  • Login
  • US Flag 
10:10AM EDT


 

Airport Tracker/Info


-or-


 

Live Flight TrackerFlight Track Log ✈ N230CA ✈ 14-Mar-2012 ✈ KMQY - KTYS

Flight Track Log - Related Links

Times and Time Zones

All times are in EDT time to prevent confusion due to time zone crossing. See the N230CA flight status page for this flight to view local times or setup timezone preferences in your user account.

Time Position Orientation Groundspeed Altitude Reporting Facility
EDT Latitude Longitude Course Direction KTS MPH feet Rate Location/Type
03:25PM 35.9833 -86.5167 180° South 104 120 1,700  Level Nashville TRACON
03:26PM 35.9500 -86.5167 195° South 122 140 2,300 420 Climbing Nashville TRACON
03:27PM 35.9000 -86.5333 180° South 153 176 2,600 120 Climbing Nashville TRACON
03:28PM 35.8500 -86.5333 90° East 164 189 2,600 300 Level Nashville TRACON
03:29PM 35.8500 -86.4833 90° East 155 178 3,300 780 Climbing Nashville TRACON
03:30PM 35.8500 -86.4333 90° East 139 160 4,200 900 Climbing Nashville TRACON
03:31PM 35.8500 -86.3833 90° East 131 151 5,100 660 Climbing Nashville TRACON
03:32PM 35.8500 -86.3333 90° East 142 163 5,500 180 Climbing Nashville TRACON
03:33PM 35.8500 -86.2833 90° East 172 198 5,500  Level Nashville TRACON
03:34PM 35.8500 -86.2167 90° East 181 208 5,500  Level Nashville TRACON
03:35PM 35.8500 -86.1500 90° East 179 206 5,500  Level Nashville TRACON
03:36PM 35.8500 -86.0833 91° East 174 200 5,500  Level Nashville TRACON
03:38PM 35.8492 -86.0214 93° East 197 227 5,500 -60 Level Memphis Center
03:39PM 35.8469 -85.9600 90° East 184 212 5,400 -60 Descending Memphis Center
03:40PM 35.8467 -85.8933 95° East 173 199 5,400  Level Memphis Center
03:41PM 35.8428 -85.8397 90° East 173 199 5,500  Climbing Memphis Center
03:42PM 35.8428 -85.7808 90° East 173 199 5,500  Level Memphis Center
03:43PM 35.8425 -85.7219 93° East 173 199 5,500  Level Memphis Center
03:44PM 35.8403 -85.6633 90° East 173 199 5,500  Level Memphis Center
03:45PM 35.8403 -85.5528 92° East 182 209 5,500  Level Atlanta Center
03:46PM 35.8389 -85.4936 89° East 175 201 5,500  Level Atlanta Center
03:47PM 35.8397 -85.4347 92° East 175 201 5,500  Level Atlanta Center
03:48PM 35.8383 -85.3783 92° East 170 196 5,500  Level Atlanta Center
03:49PM 35.8367 -85.3194 89° East 170 196 5,500  Level Atlanta Center
03:50PM 35.8375 -85.2606 92° East 170 196 5,500  Level Atlanta Center
03:51PM 35.8358 -85.2017 92° East 170 196 5,500  Level Atlanta Center
03:52PM 35.8344 -85.1428 92° East 170 196 5,500  Level Atlanta Center
03:53PM 35.8328 -85.0864 89° East 165 190 5,500  Level Atlanta Center
03:54PM 35.8333 -85.0275 92° East 165 190 5,500  Level Atlanta Center
03:55PM 35.8317 -84.9686 90° East 165 190 5,500  Level Atlanta Center
03:56PM 35.8319 -84.9094 92° East 165 190 5,500  Level Atlanta Center
03:57PM 35.8303 -84.8583 92° East 160 184 5,500  Level Atlanta Center
03:58PM 35.8286 -84.8019 92° East 160 184 5,500  Level Atlanta Center
03:59PM 35.8269 -84.7406 90° East 160 184 5,500  Level Atlanta Center
04:00PM 35.8272 -84.6842 92° East 160 184 5,500  Level Atlanta Center
04:01PM 35.8253 -84.6253 92° East 160 184 5,500  Level Atlanta Center
04:02PM 35.8236 -84.5664 92° East 160 184 5,600 -60 Climbing Atlanta Center
04:03PM 35.8217 -84.5075 90° East 160 184 5,400 -120 Descending Atlanta Center
04:04PM 35.8219 -84.4486 90° East 160 184 5,400  Level Atlanta Center
04:05PM 35.8219 -84.3922 94° East 160 184 5,400  Level Atlanta Center
04:13PM 35.8000 -84.0057 41° Northeast  Level FlightAware Approximate
04:14PM 35.8324 -83.9712 197° South  Level Estimated
04:15PM 35.8000 -83.9833 322° Northwest  Level FlightAware Approximate
04:16PM 35.8335 -84.0160 142° Southeast  Level Estimated
04:17PM 35.8000 -83.9833 322° Northwest  Level FlightAware Approximate
04:18PM 35.8335 -84.0160 322° Northwest  Level Estimated